LDSP METAR and TAF | Updated Today

LDSP METAR

Split Airport

Observation time: 14 min. ago

LDSP 200700Z 10004KT CAVOK 21/05 Q1027 NOSIG

Need help? Read our tutorial on how to read METARs or read the parsed version below.

Split Airport (LDSP) METAR

  • Weather conditions on Fri, 20 May 2022 07:00:00 +0000 (14 min. ago):
  • Present conditions: Dry
  • Clouds: Clear skies
  • Visibility: Greater than 10 km
  • Wind: 100 degrees at 4 knots
  • Temperature: 21 celsius
  • Dew point: 5 celsius
  • Pressure: 1027 millibars
  • Remarks: None


Useful to know...

LDSP TAF

Split Airport

TAF LDSP 200525Z 2006/2106 35005KT CAVOK TX27/2014Z TN15/2104Z BECMG 2009/2011 23012KT BECMG 2016/2018 32007KT
Observation time: 1:49 hr. ago
Need help? Read our tutorial on how to read TAFs or read the parsed version below.

Parsed version of TAF for Split Airport (LDSP)

  • From 20 May at 06:00 UTC, to day 21 of the month at 06:00 UTC
  • Visibility: Greater than 10 km
  • Wind: 350 degrees at 5
  • Expected to arise soon, from 20 May at 09:00 UTC, to day 20 of the month at 11:00 UTC
  • Wind: 230 degrees at 12
  • Expected to arise soon, from 20 May at 16:00 UTC, to day 20 of the month at 18:00 UTC
  • Wind: 320 degrees at 7